Accueil
METAR-TAF:

METAR-TAF

Aéroports :

Aéroport de Londres-Gatwick

Londres-Gatwick, Angleterre

latitude: 51-09N, longitude: 000-11W, altitude: 62 m

Observation

Le bulletin a été fait il y a 13 minutes, à 05:20 UTC
Vent 3 kt de direction variable
Température 15°C
Humidité 63%
Pression 1025 hPa
Visibilité 10 km ou plus
pas de nuages en-dessous de 1500 mètres et pas de cumulonimbus.

METAR: EGKK 240520Z VRB03KT CAVOK 15/08 Q1025

Heure: 06:33 (05:33 UTC)

Prévision

Le bulletin a été fait il y a 6 heures et 40 minutes, à 22:53 UTC
Prévision valable du 24 à 00 UTC au 25 à 06 UTC
Vent 3 kt de nord
Visibilité 10 km ou plus
pas de nuages en-dessous de 1500 mètres et pas de cumulonimbus.
Probabilité 30%
du 24 à 03 UTC au 24 à 07 UTC
Visibilité: 8000 m
Probabilité 40%
du 25 à 02 UTC au 25 à 06 UTC
Visibilité: 7000 m

TAF: EGKK 232253Z 2400/2506 36003KT CAVOK PROB30 2403/2407 8000 PROB40 2502/2506 7000

Observations et prévisions météorologiques de plus de 4000 aéroports (messages METAR et TAF).

Les stations disponibles sont représentées par des disques jaunes et rouges sur la carte.

Passer la souris dessus pour voir le nom de la station.

Cliquer dessus pour voir les observations et prévisions météorologiques.

Pour changer de carte: cliquez sur les boutons verts avec une croix noire pour zoomer, sur le bouton vert avec un tiret pour effectuer un zoom arrière, ou sur les flèches vertes pour les cartes adjacentes.


METAR-TAF: